KJYG

St James Municipal Airport

St James, Minnesota, USA

KJYG 110855Z AUTO 20006KT 10SM CLR 01/M02 A2982 RMK AO2

Observed Flight Rules
Dec-11 @ 08:55 UTC (25 minutes ago) Visual Flight Rules
Wind Visibility Clouds
200° at 6 knots 10 miles
  • Clear skies
Temperatures Readings
Current 1°C / 34°F
Dewpoint -2°C / 28°F
Humidity 81%
Altimeter 29.82" Hg
Pressure 1010 hPa
Elevation 325
Observed Flight Rules
Dec-11 @ 08:55 UTC
(25 minutes ago)
VFR
Wind Visibility
200° at 6 knots 10 miles
Clouds
  • Clear skies
Temperature Dewpoint
1°C / 34°F -2°C / 28°F
Humidity Altimeter Pressure
81% 29.82" Hg 1010 hPa